sensor_id;sensor_type;location;lat;lon;timestamp;P1;durP1;ratioP1;P2;durP2;ratioP2
51838;SDS011;37886;53.174;6.368;2022-08-04T00:02:15;11.40;;;3.72;;
51838;SDS011;37886;53.174;6.368;2022-08-04T00:04:52;11.32;;;3.40;;
51838;SDS011;37886;53.174;6.368;2022-08-04T00:10:04;11.20;;;3.58;;
51838;SDS011;37886;53.174;6.368;2022-08-04T00:12:32;11.15;;;3.40;;
51838;SDS011;37886;53.174;6.368;2022-08-04T00:15:03;9.15;;;3.08;;
51838;SDS011;37886;53.174;6.368;2022-08-04T00:17:37;9.57;;;3.58;;
51838;SDS011;37886;53.174;6.368;2022-08-04T00:20:07;13.48;;;3.97;;
51838;SDS011;37886;53.174;6.368;2022-08-04T00:22:34;11.82;;;3.70;;
51838;SDS011;37886;53.174;6.368;2022-08-04T00:25:03;12.98;;;3.33;;
51838;SDS011;37886;53.174;6.368;2022-08-04T00:27:30;12.85;;;3.50;;
51838;SDS011;37886;53.174;6.368;2022-08-04T00:29:56;13.15;;;3.25;;
51838;SDS011;37886;53.174;6.368;2022-08-04T00:32:23;7.50;;;3.30;;
51838;SDS011;37886;53.174;6.368;2022-08-04T00:34:51;12.20;;;3.50;;
51838;SDS011;37886;53.174;6.368;2022-08-04T00:37:21;10.85;;;3.70;;
51838;SDS011;37886;53.174;6.368;2022-08-04T00:39:48;13.87;;;4.10;;
51838;SDS011;37886;53.174;6.368;2022-08-04T00:50:18;9.63;;;3.10;;
51838;SDS011;37886;53.174;6.368;2022-08-04T00:53:07;12.60;;;3.55;;
51838;SDS011;37886;53.174;6.368;2022-08-04T01:01:50;11.90;;;3.30;;
51838;SDS011;37886;53.174;6.368;2022-08-04T01:15:21;11.65;;;4.20;;
51838;SDS011;37886;53.174;6.368;2022-08-04T01:18:13;10.82;;;3.90;;
51838;SDS011;37886;53.174;6.368;2022-08-04T01:26:42;14.27;;;3.92;;
51838;SDS011;37886;53.174;6.368;2022-08-04T01:29:15;11.07;;;4.00;;
51838;SDS011;37886;53.174;6.368;2022-08-04T01:34:35;10.32;;;3.58;;
51838;SDS011;37886;53.174;6.368;2022-08-04T01:39:50;10.00;;;3.72;;
51838;SDS011;37886;53.174;6.368;2022-08-04T01:42:24;13.30;;;4.30;;
51838;SDS011;37886;53.174;6.368;2022-08-04T01:44:50;11.63;;;4.45;;
51838;SDS011;37886;53.174;6.368;2022-08-04T01:47:20;9.60;;;3.60;;
51838;SDS011;37886;53.174;6.368;2022-08-04T01:49:46;12.57;;;4.28;;
51838;SDS011;37886;53.174;6.368;2022-08-04T01:52:15;9.02;;;4.00;;
51838;SDS011;37886;53.174;6.368;2022-08-04T01:54:42;7.22;;;3.88;;
51838;SDS011;37886;53.174;6.368;2022-08-04T01:57:09;9.43;;;3.90;;
51838;SDS011;37886;53.174;6.368;2022-08-04T01:59:35;18.35;;;4.90;;
51838;SDS011;37886;53.174;6.368;2022-08-04T02:02:03;11.57;;;4.18;;
51838;SDS011;37886;53.174;6.368;2022-08-04T02:04:30;14.25;;;4.80;;
51838;SDS011;37886;53.174;6.368;2022-08-04T02:12:24;13.95;;;5.05;;
51838;SDS011;37886;53.174;6.368;2022-08-04T02:15:26;12.02;;;5.13;;
51838;SDS011;37886;53.174;6.368;2022-08-04T02:20:33;11.85;;;4.30;;
51838;SDS011;37886;53.174;6.368;2022-08-04T02:23:02;14.75;;;4.95;;
51838;SDS011;37886;53.174;6.368;2022-08-04T02:25:31;12.68;;;4.90;;
51838;SDS011;37886;53.174;6.368;2022-08-04T02:28:15;11.80;;;4.60;;
51838;SDS011;37886;53.174;6.368;2022-08-04T02:34:31;16.10;;;4.82;;
51838;SDS011;37886;53.174;6.368;2022-08-04T02:36:52;12.75;;;5.47;;
51838;SDS011;37886;53.174;6.368;2022-08-04T02:39:20;13.55;;;4.95;;
51838;SDS011;37886;53.174;6.368;2022-08-04T02:41:49;14.48;;;4.88;;
51838;SDS011;37886;53.174;6.368;2022-08-04T02:44:20;12.85;;;5.25;;
51838;SDS011;37886;53.174;6.368;2022-08-04T02:46:47;13.65;;;4.88;;
51838;SDS011;37886;53.174;6.368;2022-08-04T02:49:16;15.63;;;5.28;;
51838;SDS011;37886;53.174;6.368;2022-08-04T02:51:49;13.95;;;5.50;;
51838;SDS011;37886;53.174;6.368;2022-08-04T02:54:17;15.93;;;6.00;;
51838;SDS011;37886;53.174;6.368;2022-08-04T02:56:47;12.20;;;5.38;;
51838;SDS011;37886;53.174;6.368;2022-08-04T02:59:16;12.73;;;5.40;;
51838;SDS011;37886;53.174;6.368;2022-08-04T03:01:44;16.33;;;5.68;;
51838;SDS011;37886;53.174;6.368;2022-08-04T03:09:18;14.90;;;5.90;;
51838;SDS011;37886;53.174;6.368;2022-08-04T03:11:56;18.88;;;5.68;;
51838;SDS011;37886;53.174;6.368;2022-08-04T03:34:27;13.80;;;5.50;;
51838;SDS011;37886;53.174;6.368;2022-08-04T04:03:31;10.98;;;5.93;;
51838;SDS011;37886;53.174;6.368;2022-08-04T04:12:00;13.43;;;6.00;;
51838;SDS011;37886;53.174;6.368;2022-08-04T04:14:51;12.95;;;6.20;;
51838;SDS011;37886;53.174;6.368;2022-08-04T04:28:29;16.80;;;6.20;;
51838;SDS011;37886;53.174;6.368;2022-08-04T04:34:28;12.27;;;6.55;;
51838;SDS011;37886;53.174;6.368;2022-08-04T04:45:46;11.82;;;5.80;;
51838;SDS011;37886;53.174;6.368;2022-08-04T04:59:27;14.98;;;6.30;;
51838;SDS011;37886;53.174;6.368;2022-08-04T05:15:14;19.38;;;6.70;;
51838;SDS011;37886;53.174;6.368;2022-08-04T05:17:44;16.35;;;6.35;;
51838;SDS011;37886;53.174;6.368;2022-08-04T05:20:15;16.33;;;7.18;;
51838;SDS011;37886;53.174;6.368;2022-08-04T05:23:02;14.32;;;6.35;;
51838;SDS011;37886;53.174;6.368;2022-08-04T05:25:42;15.20;;;6.88;;
51838;SDS011;37886;53.174;6.368;2022-08-04T05:28:19;17.77;;;6.95;;
51838;SDS011;37886;53.174;6.368;2022-08-04T05:30:49;17.25;;;6.53;;
51838;SDS011;37886;53.174;6.368;2022-08-04T05:33:26;12.80;;;6.75;;
51838;SDS011;37886;53.174;6.368;2022-08-04T05:36:14;13.68;;;6.57;;
51838;SDS011;37886;53.174;6.368;2022-08-04T05:38:42;15.50;;;6.72;;
51838;SDS011;37886;53.174;6.368;2022-08-04T05:41:13;17.17;;;7.13;;
51838;SDS011;37886;53.174;6.368;2022-08-04T05:43:41;17.50;;;7.03;;
51838;SDS011;37886;53.174;6.368;2022-08-04T05:46:10;13.77;;;6.85;;
51838;SDS011;37886;53.174;6.368;2022-08-04T05:48:37;12.57;;;6.57;;
51838;SDS011;37886;53.174;6.368;2022-08-04T05:51:04;14.30;;;6.72;;
51838;SDS011;37886;53.174;6.368;2022-08-04T05:53:34;16.58;;;6.20;;
51838;SDS011;37886;53.174;6.368;2022-08-04T05:56:01;12.25;;;6.30;;
51838;SDS011;37886;53.174;6.368;2022-08-04T05:58:28;18.63;;;7.57;;
51838;SDS011;37886;53.174;6.368;2022-08-04T06:00:55;15.95;;;6.60;;
51838;SDS011;37886;53.174;6.368;2022-08-04T06:03:25;14.37;;;7.03;;
51838;SDS011;37886;53.174;6.368;2022-08-04T06:05:53;18.58;;;6.43;;
51838;SDS011;37886;53.174;6.368;2022-08-04T06:08:21;16.63;;;6.80;;
51838;SDS011;37886;53.174;6.368;2022-08-04T06:10:48;15.45;;;6.90;;
51838;SDS011;37886;53.174;6.368;2022-08-04T06:13:17;11.82;;;6.22;;
51838;SDS011;37886;53.174;6.368;2022-08-04T06:15:50;9.85;;;5.80;;
51838;SDS011;37886;53.174;6.368;2022-08-04T06:18:18;14.02;;;6.53;;
51838;SDS011;37886;53.174;6.368;2022-08-04T06:20:45;16.77;;;6.80;;
51838;SDS011;37886;53.174;6.368;2022-08-04T06:23:14;13.18;;;6.18;;
51838;SDS011;37886;53.174;6.368;2022-08-04T06:25:44;12.25;;;6.03;;
51838;SDS011;37886;53.174;6.368;2022-08-04T06:28:12;10.95;;;5.65;;
51838;SDS011;37886;53.174;6.368;2022-08-04T06:30:39;17.20;;;5.72;;
51838;SDS011;37886;53.174;6.368;2022-08-04T06:33:09;19.35;;;6.60;;
51838;SDS011;37886;53.174;6.368;2022-08-04T06:35:52;11.95;;;5.65;;
51838;SDS011;37886;53.174;6.368;2022-08-04T06:38:23;14.70;;;5.47;;
51838;SDS011;37886;53.174;6.368;2022-08-04T06:40:51;14.48;;;5.90;;
51838;SDS011;37886;53.174;6.368;2022-08-04T06:43:19;13.68;;;5.90;;
51838;SDS011;37886;53.174;6.368;2022-08-04T06:45:46;14.48;;;5.35;;
51838;SDS011;37886;53.174;6.368;2022-08-04T06:48:13;12.85;;;4.82;;
51838;SDS011;37886;53.174;6.368;2022-08-04T06:50:44;11.73;;;5.15;;
51838;SDS011;37886;53.174;6.368;2022-08-04T06:53:12;12.25;;;4.65;;
51838;SDS011;37886;53.174;6.368;2022-08-04T06:55:42;14.95;;;4.93;;
51838;SDS011;37886;53.174;6.368;2022-08-04T06:58:13;14.13;;;4.70;;
51838;SDS011;37886;53.174;6.368;2022-08-04T07:00:40;11.70;;;4.35;;
51838;SDS011;37886;53.174;6.368;2022-08-04T07:03:09;13.65;;;4.00;;
51838;SDS011;37886;53.174;6.368;2022-08-04T07:05:36;12.95;;;4.45;;
51838;SDS011;37886;53.174;6.368;2022-08-04T07:08:02;9.55;;;4.25;;
51838;SDS011;37886;53.174;6.368;2022-08-04T07:10:28;13.50;;;4.38;;
51838;SDS011;37886;53.174;6.368;2022-08-04T07:12:55;10.88;;;3.75;;
51838;SDS011;37886;53.174;6.368;2022-08-04T07:15:22;11.40;;;4.47;;
51838;SDS011;37886;53.174;6.368;2022-08-04T07:17:50;14.15;;;5.70;;
51838;SDS011;37886;53.174;6.368;2022-08-04T07:20:16;13.82;;;4.88;;
51838;SDS011;37886;53.174;6.368;2022-08-04T07:22:43;17.33;;;5.50;;
51838;SDS011;37886;53.174;6.368;2022-08-04T07:25:12;13.82;;;6.07;;
51838;SDS011;37886;53.174;6.368;2022-08-04T07:27:39;12.68;;;6.18;;
51838;SDS011;37886;53.174;6.368;2022-08-04T07:30:07;15.60;;;7.43;;
51838;SDS011;37886;53.174;6.368;2022-08-04T07:32:34;18.38;;;7.45;;
51838;SDS011;37886;53.174;6.368;2022-08-04T07:35:01;14.75;;;6.35;;
51838;SDS011;37886;53.174;6.368;2022-08-04T07:37:28;16.02;;;7.50;;
51838;SDS011;37886;53.174;6.368;2022-08-04T07:39:53;12.38;;;7.47;;
51838;SDS011;37886;53.174;6.368;2022-08-04T07:42:19;13.70;;;6.53;;
51838;SDS011;37886;53.174;6.368;2022-08-04T07:44:45;15.45;;;7.60;;
51838;SDS011;37886;53.174;6.368;2022-08-04T07:47:12;14.93;;;6.88;;
51838;SDS011;37886;53.174;6.368;2022-08-04T07:49:40;14.50;;;8.63;;
51838;SDS011;37886;53.174;6.368;2022-08-04T07:52:06;16.65;;;7.70;;
51838;SDS011;37886;53.174;6.368;2022-08-04T07:54:32;13.30;;;6.85;;
51838;SDS011;37886;53.174;6.368;2022-08-04T07:56:59;15.73;;;6.30;;
51838;SDS011;37886;53.174;6.368;2022-08-04T07:59:26;11.90;;;6.38;;
51838;SDS011;37886;53.174;6.368;2022-08-04T08:01:52;16.63;;;6.80;;
51838;SDS011;37886;53.174;6.368;2022-08-04T08:04:18;11.90;;;6.90;;
51838;SDS011;37886;53.174;6.368;2022-08-04T08:06:45;12.30;;;6.50;;
51838;SDS011;37886;53.174;6.368;2022-08-04T08:09:12;17.90;;;6.80;;
51838;SDS011;37886;53.174;6.368;2022-08-04T08:11:40;14.07;;;6.35;;
51838;SDS011;37886;53.174;6.368;2022-08-04T08:14:07;14.45;;;5.43;;
51838;SDS011;37886;53.174;6.368;2022-08-04T08:16:36;20.20;;;6.03;;
51838;SDS011;37886;53.174;6.368;2022-08-04T08:19:03;14.13;;;5.78;;
51838;SDS011;37886;53.174;6.368;2022-08-04T08:21:29;11.75;;;6.13;;
51838;SDS011;37886;53.174;6.368;2022-08-04T08:23:55;11.30;;;5.60;;
51838;SDS011;37886;53.174;6.368;2022-08-04T08:26:21;15.85;;;6.03;;
51838;SDS011;37886;53.174;6.368;2022-08-04T08:28:47;15.98;;;6.03;;
51838;SDS011;37886;53.174;6.368;2022-08-04T08:31:13;16.75;;;5.65;;
51838;SDS011;37886;53.174;6.368;2022-08-04T08:33:39;12.05;;;6.40;;
51838;SDS011;37886;53.174;6.368;2022-08-04T08:36:13;14.23;;;6.13;;
51838;SDS011;37886;53.174;6.368;2022-08-04T08:58:58;13.65;;;5.85;;
51838;SDS011;37886;53.174;6.368;2022-08-04T09:13:47;10.95;;;4.05;;
51838;SDS011;37886;53.174;6.368;2022-08-04T09:24:47;8.77;;;2.83;;
51838;SDS011;37886;53.174;6.368;2022-08-04T09:30:08;11.07;;;2.83;;
51838;SDS011;37886;53.174;6.368;2022-08-04T09:49:20;13.07;;;2.17;;
51838;SDS011;37886;53.174;6.368;2022-08-04T09:52:10;10.38;;;2.20;;
51838;SDS011;37886;53.174;6.368;2022-08-04T09:58:08;7.85;;;2.08;;
51838;SDS011;37886;53.174;6.368;2022-08-04T10:00:47;12.38;;;2.47;;
51838;SDS011;37886;53.174;6.368;2022-08-04T10:03:16;11.52;;;2.40;;
51838;SDS011;37886;53.174;6.368;2022-08-04T10:14:04;8.85;;;2.97;;
51838;SDS011;37886;53.174;6.368;2022-08-04T10:16:52;15.98;;;3.15;;
51838;SDS011;37886;53.174;6.368;2022-08-04T10:19:34;12.63;;;3.03;;
51838;SDS011;37886;53.174;6.368;2022-08-04T10:24:35;10.10;;;2.25;;
51838;SDS011;37886;53.174;6.368;2022-08-04T10:27:40;6.90;;;2.90;;
51838;SDS011;37886;53.174;6.368;2022-08-04T10:30:13;10.90;;;2.50;;
51838;SDS011;37886;53.174;6.368;2022-08-04T10:35:24;12.20;;;3.28;;
51838;SDS011;37886;53.174;6.368;2022-08-04T10:37:59;7.45;;;2.53;;
51838;SDS011;37886;53.174;6.368;2022-08-04T10:45:37;8.82;;;3.40;;
51838;SDS011;37886;53.174;6.368;2022-08-04T10:48:11;9.45;;;2.33;;
51838;SDS011;37886;53.174;6.368;2022-08-04T10:50:49;7.25;;;2.17;;
51838;SDS011;37886;53.174;6.368;2022-08-04T10:53:50;11.38;;;1.50;;
51838;SDS011;37886;53.174;6.368;2022-08-04T10:56:22;8.77;;;1.45;;
51838;SDS011;37886;53.174;6.368;2022-08-04T10:59:01;8.52;;;1.88;;
51838;SDS011;37886;53.174;6.368;2022-08-04T11:01:39;3.67;;;1.40;;
51838;SDS011;37886;53.174;6.368;2022-08-04T11:04:22;3.95;;;1.40;;
51838;SDS011;37886;53.174;6.368;2022-08-04T11:06:49;4.32;;;1.63;;
51838;SDS011;37886;53.174;6.368;2022-08-04T11:09:17;3.25;;;1.27;;
51838;SDS011;37886;53.174;6.368;2022-08-04T11:11:46;5.65;;;1.40;;
51838;SDS011;37886;53.174;6.368;2022-08-04T11:14:36;3.08;;;1.20;;
51838;SDS011;37886;53.174;6.368;2022-08-04T11:17:19;4.75;;;1.40;;
51838;SDS011;37886;53.174;6.368;2022-08-04T11:19:55;4.72;;;1.42;;
51838;SDS011;37886;53.174;6.368;2022-08-04T11:22:25;2.28;;;1.27;;
51838;SDS011;37886;53.174;6.368;2022-08-04T11:30:14;4.43;;;1.33;;
51838;SDS011;37886;53.174;6.368;2022-08-04T11:38:01;3.13;;;1.38;;
51838;SDS011;37886;53.174;6.368;2022-08-04T11:40:40;4.93;;;1.40;;
51838;SDS011;37886;53.174;6.368;2022-08-04T11:43:08;4.32;;;1.40;;
51838;SDS011;37886;53.174;6.368;2022-08-04T11:45:50;4.20;;;1.23;;
51838;SDS011;37886;53.174;6.368;2022-08-04T11:50:55;9.57;;;1.45;;
51838;SDS011;37886;53.174;6.368;2022-08-04T11:53:26;3.47;;;1.40;;
51838;SDS011;37886;53.174;6.368;2022-08-04T11:55:57;4.50;;;0.95;;
51838;SDS011;37886;53.174;6.368;2022-08-04T11:58:26;4.63;;;1.27;;
51838;SDS011;37886;53.174;6.368;2022-08-04T12:06:38;5.88;;;1.23;;
51838;SDS011;37886;53.174;6.368;2022-08-04T12:17:25;5.07;;;1.40;;
51838;SDS011;37886;53.174;6.368;2022-08-04T12:19:57;2.45;;;0.93;;
51838;SDS011;37886;53.174;6.368;2022-08-04T12:22:33;2.67;;;1.10;;
51838;SDS011;37886;53.174;6.368;2022-08-04T12:25:09;2.78;;;1.38;;
51838;SDS011;37886;53.174;6.368;2022-08-04T12:30:33;4.57;;;1.40;;
51838;SDS011;37886;53.174;6.368;2022-08-04T12:33:06;3.50;;;1.20;;
51838;SDS011;37886;53.174;6.368;2022-08-04T12:35:40;2.15;;;1.00;;
51838;SDS011;37886;53.174;6.368;2022-08-04T12:38:13;1.60;;;0.88;;
51838;SDS011;37886;53.174;6.368;2022-08-04T12:40:48;2.60;;;0.77;;
51838;SDS011;37886;53.174;6.368;2022-08-04T12:45:57;3.35;;;1.30;;
51838;SDS011;37886;53.174;6.368;2022-08-04T12:48:28;3.35;;;1.00;;
51838;SDS011;37886;53.174;6.368;2022-08-04T12:50:56;2.17;;;0.77;;
51838;SDS011;37886;53.174;6.368;2022-08-04T12:53:28;4.45;;;0.93;;
51838;SDS011;37886;53.174;6.368;2022-08-04T12:55:57;1.95;;;1.00;;
51838;SDS011;37886;53.174;6.368;2022-08-04T12:58:24;8.45;;;1.08;;
51838;SDS011;37886;53.174;6.368;2022-08-04T13:00:53;4.55;;;0.95;;
51838;SDS011;37886;53.174;6.368;2022-08-04T13:05:54;2.45;;;1.10;;
51838;SDS011;37886;53.174;6.368;2022-08-04T13:08:21;5.35;;;1.25;;
51838;SDS011;37886;53.174;6.368;2022-08-04T13:10:48;2.97;;;1.17;;
51838;SDS011;37886;53.174;6.368;2022-08-04T13:13:20;5.43;;;1.30;;
51838;SDS011;37886;53.174;6.368;2022-08-04T13:16:00;6.60;;;1.13;;
51838;SDS011;37886;53.174;6.368;2022-08-04T13:18:30;2.60;;;1.13;;
51838;SDS011;37886;53.174;6.368;2022-08-04T13:23:42;1.63;;;1.17;;
51838;SDS011;37886;53.174;6.368;2022-08-04T13:26:11;2.38;;;1.05;;
51838;SDS011;37886;53.174;6.368;2022-08-04T13:28:39;4.03;;;1.00;;
51838;SDS011;37886;53.174;6.368;2022-08-04T13:31:07;2.15;;;0.80;;
51838;SDS011;37886;53.174;6.368;2022-08-04T13:33:39;1.77;;;0.93;;
51838;SDS011;37886;53.174;6.368;2022-08-04T13:36:08;6.95;;;0.90;;
51838;SDS011;37886;53.174;6.368;2022-08-04T13:38:38;3.13;;;1.20;;
51838;SDS011;37886;53.174;6.368;2022-08-04T13:41:15;3.95;;;1.15;;
51838;SDS011;37886;53.174;6.368;2022-08-04T13:43:43;3.65;;;0.93;;
51838;SDS011;37886;53.174;6.368;2022-08-04T13:46:25;2.67;;;0.82;;
51838;SDS011;37886;53.174;6.368;2022-08-04T13:48:58;1.58;;;0.85;;
51838;SDS011;37886;53.174;6.368;2022-08-04T13:51:26;6.32;;;1.35;;
51838;SDS011;37886;53.174;6.368;2022-08-04T13:53:55;2.88;;;1.00;;
51838;SDS011;37886;53.174;6.368;2022-08-04T13:56:23;3.65;;;1.25;;
51838;SDS011;37886;53.174;6.368;2022-08-04T13:58:54;5.18;;;1.08;;
51838;SDS011;37886;53.174;6.368;2022-08-04T14:01:22;3.47;;;1.10;;
51838;SDS011;37886;53.174;6.368;2022-08-04T14:03:56;1.92;;;1.00;;
51838;SDS011;37886;53.174;6.368;2022-08-04T14:06:28;2.85;;;1.10;;
51838;SDS011;37886;53.174;6.368;2022-08-04T14:09:22;2.50;;;0.93;;
51838;SDS011;37886;53.174;6.368;2022-08-04T14:11:52;12.02;;;1.10;;
51838;SDS011;37886;53.174;6.368;2022-08-04T14:16:54;5.45;;;1.40;;
51838;SDS011;37886;53.174;6.368;2022-08-04T14:19:22;6.80;;;1.63;;
51838;SDS011;37886;53.174;6.368;2022-08-04T14:21:48;8.07;;;2.17;;
51838;SDS011;37886;53.174;6.368;2022-08-04T14:24:24;8.00;;;1.60;;
51838;SDS011;37886;53.174;6.368;2022-08-04T14:26:51;7.00;;;1.48;;
51838;SDS011;37886;53.174;6.368;2022-08-04T14:29:19;8.65;;;1.77;;
51838;SDS011;37886;53.174;6.368;2022-08-04T14:31:46;5.25;;;1.48;;
51838;SDS011;37886;53.174;6.368;2022-08-04T14:34:27;4.25;;;1.67;;
51838;SDS011;37886;53.174;6.368;2022-08-04T14:39:41;7.05;;;2.00;;
51838;SDS011;37886;53.174;6.368;2022-08-04T14:42:08;4.47;;;1.95;;
51838;SDS011;37886;53.174;6.368;2022-08-04T14:44:50;8.93;;;3.00;;
51838;SDS011;37886;53.174;6.368;2022-08-04T14:50:07;7.13;;;2.40;;
51838;SDS011;37886;53.174;6.368;2022-08-04T14:52:34;7.25;;;2.65;;
51838;SDS011;37886;53.174;6.368;2022-08-04T14:55:15;5.03;;;2.15;;
51838;SDS011;37886;53.174;6.368;2022-08-04T14:57:49;6.57;;;3.00;;
51838;SDS011;37886;53.174;6.368;2022-08-04T15:00:27;5.75;;;2.40;;
51838;SDS011;37886;53.174;6.368;2022-08-04T15:03:04;6.95;;;2.78;;
51838;SDS011;37886;53.174;6.368;2022-08-04T15:05:32;6.55;;;2.75;;
51838;SDS011;37886;53.174;6.368;2022-08-04T15:07:59;6.57;;;2.30;;
51838;SDS011;37886;53.174;6.368;2022-08-04T15:10:26;6.70;;;2.42;;
51838;SDS011;37886;53.174;6.368;2022-08-04T15:12:56;4.75;;;2.10;;
51838;SDS011;37886;53.174;6.368;2022-08-04T15:15:22;5.38;;;2.08;;
51838;SDS011;37886;53.174;6.368;2022-08-04T15:17:50;3.13;;;1.95;;
51838;SDS011;37886;53.174;6.368;2022-08-04T15:20:18;5.38;;;2.53;;
51838;SDS011;37886;53.174;6.368;2022-08-04T15:22:43;5.95;;;2.30;;
51838;SDS011;37886;53.174;6.368;2022-08-04T15:25:09;4.25;;;2.50;;
51838;SDS011;37886;53.174;6.368;2022-08-04T15:27:38;5.30;;;2.25;;
51838;SDS011;37886;53.174;6.368;2022-08-04T15:30:09;4.53;;;1.88;;
51838;SDS011;37886;53.174;6.368;2022-08-04T15:32:39;3.95;;;2.10;;
51838;SDS011;37886;53.174;6.368;2022-08-04T15:35:24;5.75;;;1.70;;
51838;SDS011;37886;53.174;6.368;2022-08-04T15:37:59;5.72;;;1.95;;
51838;SDS011;37886;53.174;6.368;2022-08-04T15:46:02;6.43;;;1.48;;
51838;SDS011;37886;53.174;6.368;2022-08-04T15:48:32;3.25;;;1.10;;
51838;SDS011;37886;53.174;6.368;2022-08-04T15:50:59;5.13;;;1.77;;
51838;SDS011;37886;53.174;6.368;2022-08-04T15:53:35;3.30;;;1.25;;
51838;SDS011;37886;53.174;6.368;2022-08-04T15:58:53;4.97;;;1.20;;
51838;SDS011;37886;53.174;6.368;2022-08-04T16:01:19;2.88;;;1.20;;
51838;SDS011;37886;53.174;6.368;2022-08-04T16:03:49;4.07;;;1.75;;
51838;SDS011;37886;53.174;6.368;2022-08-04T16:19:05;1.42;;;1.20;;
51838;SDS011;37886;53.174;6.368;2022-08-04T16:21:33;5.43;;;1.58;;
51838;SDS011;37886;53.174;6.368;2022-08-04T16:24:29;3.28;;;1.42;;
51838;SDS011;37886;53.174;6.368;2022-08-04T16:26:59;4.97;;;1.52;;
51838;SDS011;37886;53.174;6.368;2022-08-04T16:32:06;5.97;;;1.50;;
51838;SDS011;37886;53.174;6.368;2022-08-04T16:34:38;3.75;;;1.17;;
51838;SDS011;37886;53.174;6.368;2022-08-04T16:37:07;5.45;;;1.40;;
51838;SDS011;37886;53.174;6.368;2022-08-04T16:39:35;4.28;;;1.17;;
51838;SDS011;37886;53.174;6.368;2022-08-04T16:42:44;5.55;;;1.52;;
51838;SDS011;37886;53.174;6.368;2022-08-04T16:45:08;5.45;;;1.45;;
51838;SDS011;37886;53.174;6.368;2022-08-04T16:50:14;3.00;;;1.27;;
51838;SDS011;37886;53.174;6.368;2022-08-04T16:52:45;5.97;;;1.70;;
51838;SDS011;37886;53.174;6.368;2022-08-04T16:55:23;5.55;;;1.30;;
51838;SDS011;37886;53.174;6.368;2022-08-04T16:57:56;6.38;;;1.40;;
51838;SDS011;37886;53.174;6.368;2022-08-04T17:00:32;7.75;;;1.77;;
51838;SDS011;37886;53.174;6.368;2022-08-04T17:03:09;6.03;;;1.40;;
51838;SDS011;37886;53.174;6.368;2022-08-04T17:05:37;5.10;;;1.10;;
51838;SDS011;37886;53.174;6.368;2022-08-04T17:08:03;5.22;;;1.10;;
51838;SDS011;37886;53.174;6.368;2022-08-04T17:12:59;5.03;;;1.52;;
51838;SDS011;37886;53.174;6.368;2022-08-04T17:15:26;4.88;;;1.67;;
51838;SDS011;37886;53.174;6.368;2022-08-04T17:17:53;5.93;;;1.38;;
51838;SDS011;37886;53.174;6.368;2022-08-04T17:20:41;5.28;;;1.80;;
51838;SDS011;37886;53.174;6.368;2022-08-04T17:23:26;6.80;;;1.70;;
51838;SDS011;37886;53.174;6.368;2022-08-04T17:25:53;4.60;;;1.80;;
51838;SDS011;37886;53.174;6.368;2022-08-04T17:28:21;6.07;;;1.40;;
51838;SDS011;37886;53.174;6.368;2022-08-04T17:30:48;5.35;;;1.80;;
51838;SDS011;37886;53.174;6.368;2022-08-04T17:33:15;6.45;;;1.60;;
51838;SDS011;37886;53.174;6.368;2022-08-04T17:35:42;7.18;;;1.77;;
51838;SDS011;37886;53.174;6.368;2022-08-04T17:38:09;9.20;;;1.50;;
51838;SDS011;37886;53.174;6.368;2022-08-04T17:40:57;5.82;;;1.73;;
51838;SDS011;37886;53.174;6.368;2022-08-04T17:43:34;5.60;;;2.00;;
51838;SDS011;37886;53.174;6.368;2022-08-04T17:46:13;5.80;;;1.88;;
51838;SDS011;37886;53.174;6.368;2022-08-04T17:51:55;6.18;;;2.03;;
51838;SDS011;37886;53.174;6.368;2022-08-04T17:56:58;6.75;;;2.42;;
51838;SDS011;37886;53.174;6.368;2022-08-04T18:02:05;11.35;;;3.28;;
51838;SDS011;37886;53.174;6.368;2022-08-04T18:07:10;5.18;;;2.22;;
51838;SDS011;37886;53.174;6.368;2022-08-04T18:09:39;7.13;;;2.10;;
51838;SDS011;37886;53.174;6.368;2022-08-04T18:14:41;6.68;;;2.17;;
51838;SDS011;37886;53.174;6.368;2022-08-04T18:17:11;8.93;;;2.13;;
51838;SDS011;37886;53.174;6.368;2022-08-04T18:19:38;8.68;;;2.75;;
51838;SDS011;37886;53.174;6.368;2022-08-04T18:22:16;8.27;;;2.33;;
51838;SDS011;37886;53.174;6.368;2022-08-04T18:24:41;8.23;;;2.20;;
51838;SDS011;37886;53.174;6.368;2022-08-04T18:27:07;7.85;;;2.63;;
51838;SDS011;37886;53.174;6.368;2022-08-04T18:29:33;8.18;;;2.33;;
51838;SDS011;37886;53.174;6.368;2022-08-04T18:31:59;8.18;;;2.05;;
51838;SDS011;37886;53.174;6.368;2022-08-04T18:34:25;5.40;;;1.88;;
51838;SDS011;37886;53.174;6.368;2022-08-04T18:36:51;13.25;;;2.67;;
51838;SDS011;37886;53.174;6.368;2022-08-04T18:39:17;4.13;;;1.92;;
51838;SDS011;37886;53.174;6.368;2022-08-04T18:41:43;6.47;;;2.42;;
51838;SDS011;37886;53.174;6.368;2022-08-04T18:44:09;5.82;;;2.28;;
51838;SDS011;37886;53.174;6.368;2022-08-04T18:46:38;7.15;;;2.40;;
51838;SDS011;37886;53.174;6.368;2022-08-04T18:49:05;4.43;;;2.20;;
51838;SDS011;37886;53.174;6.368;2022-08-04T18:51:31;8.30;;;2.40;;
51838;SDS011;37886;53.174;6.368;2022-08-04T18:53:56;9.32;;;2.20;;
51838;SDS011;37886;53.174;6.368;2022-08-04T18:56:22;8.63;;;2.22;;
51838;SDS011;37886;53.174;6.368;2022-08-04T18:58:48;8.65;;;2.67;;
51838;SDS011;37886;53.174;6.368;2022-08-04T19:01:14;6.57;;;2.20;;
51838;SDS011;37886;53.174;6.368;2022-08-04T19:03:40;7.75;;;2.50;;
51838;SDS011;37886;53.174;6.368;2022-08-04T19:06:06;7.18;;;2.50;;
51838;SDS011;37886;53.174;6.368;2022-08-04T19:08:32;7.35;;;2.20;;
51838;SDS011;37886;53.174;6.368;2022-08-04T19:10:58;6.68;;;2.25;;
51838;SDS011;37886;53.174;6.368;2022-08-04T19:13:24;8.20;;;2.88;;
51838;SDS011;37886;53.174;6.368;2022-08-04T19:15:51;9.77;;;2.13;;
51838;SDS011;37886;53.174;6.368;2022-08-04T19:18:18;8.77;;;2.20;;
51838;SDS011;37886;53.174;6.368;2022-08-04T19:20:44;7.05;;;2.30;;
51838;SDS011;37886;53.174;6.368;2022-08-04T19:23:11;10.50;;;2.60;;
51838;SDS011;37886;53.174;6.368;2022-08-04T19:25:37;9.23;;;2.63;;
51838;SDS011;37886;53.174;6.368;2022-08-04T19:28:04;8.38;;;2.30;;
51838;SDS011;37886;53.174;6.368;2022-08-04T19:30:29;10.68;;;2.38;;
51838;SDS011;37886;53.174;6.368;2022-08-04T19:32:55;9.10;;;2.40;;
51838;SDS011;37886;53.174;6.368;2022-08-04T19:35:21;8.02;;;2.67;;
51838;SDS011;37886;53.174;6.368;2022-08-04T19:37:47;10.57;;;2.60;;
51838;SDS011;37886;53.174;6.368;2022-08-04T19:40:13;8.98;;;2.67;;
51838;SDS011;37886;53.174;6.368;2022-08-04T19:42:39;6.68;;;2.70;;
51838;SDS011;37886;53.174;6.368;2022-08-04T19:45:07;6.38;;;2.72;;
51838;SDS011;37886;53.174;6.368;2022-08-04T19:47:34;9.93;;;2.65;;
51838;SDS011;37886;53.174;6.368;2022-08-04T19:50:00;11.30;;;3.08;;
51838;SDS011;37886;53.174;6.368;2022-08-04T19:52:26;7.30;;;2.78;;
51838;SDS011;37886;53.174;6.368;2022-08-04T19:54:51;7.47;;;3.00;;
51838;SDS011;37886;53.174;6.368;2022-08-04T19:57:17;6.07;;;2.55;;
51838;SDS011;37886;53.174;6.368;2022-08-04T19:59:43;8.95;;;2.75;;
51838;SDS011;37886;53.174;6.368;2022-08-04T20:02:09;8.27;;;2.83;;
51838;SDS011;37886;53.174;6.368;2022-08-04T20:04:35;11.57;;;3.20;;
51838;SDS011;37886;53.174;6.368;2022-08-04T20:07:00;12.27;;;2.78;;
51838;SDS011;37886;53.174;6.368;2022-08-04T20:09:26;10.32;;;3.10;;
51838;SDS011;37886;53.174;6.368;2022-08-04T20:11:53;7.90;;;3.50;;
51838;SDS011;37886;53.174;6.368;2022-08-04T20:14:19;9.13;;;3.47;;
51838;SDS011;37886;53.174;6.368;2022-08-04T20:16:47;11.68;;;2.95;;
51838;SDS011;37886;53.174;6.368;2022-08-04T20:19:13;6.72;;;3.03;;
51838;SDS011;37886;53.174;6.368;2022-08-04T20:21:38;7.43;;;3.03;;
51838;SDS011;37886;53.174;6.368;2022-08-04T20:24:04;5.03;;;2.90;;
51838;SDS011;37886;53.174;6.368;2022-08-04T20:26:30;6.85;;;2.70;;
51838;SDS011;37886;53.174;6.368;2022-08-04T20:28:56;13.68;;;2.90;;